sensor_id;sensor_type;location;lat;lon;timestamp;P1;durP1;ratioP1;P2;durP2;ratioP2
12224;SDS011;6175;50.956;11.064;2024-03-23T00:55:29;21.67;;;17.55;;
12224;SDS011;6175;50.956;11.064;2024-03-23T00:57:55;22.92;;;18.27;;
12224;SDS011;6175;50.956;11.064;2024-03-23T01:00:20;21.77;;;17.35;;
12224;SDS011;6175;50.956;11.064;2024-03-23T01:02:47;24.13;;;18.25;;
12224;SDS011;6175;50.956;11.064;2024-03-23T01:05:12;22.20;;;17.10;;
12224;SDS011;6175;50.956;11.064;2024-03-23T01:07:38;22.73;;;17.42;;
12224;SDS011;6175;50.956;11.064;2024-03-23T01:10:04;22.67;;;17.90;;
12224;SDS011;6175;50.956;11.064;2024-03-23T01:12:32;21.65;;;16.77;;
12224;SDS011;6175;50.956;11.064;2024-03-23T01:14:57;26.88;;;19.92;;
12224;SDS011;6175;50.956;11.064;2024-03-23T01:17:23;26.00;;;20.27;;
12224;SDS011;6175;50.956;11.064;2024-03-23T01:19:49;28.08;;;20.70;;
12224;SDS011;6175;50.956;11.064;2024-03-23T01:22:15;27.48;;;20.02;;
12224;SDS011;6175;50.956;11.064;2024-03-23T01:24:40;28.15;;;21.23;;
12224;SDS011;6175;50.956;11.064;2024-03-23T01:27:08;24.83;;;19.00;;
12224;SDS011;6175;50.956;11.064;2024-03-23T01:29:34;28.27;;;20.23;;
12224;SDS011;6175;50.956;11.064;2024-03-23T01:32:01;29.85;;;21.50;;
12224;SDS011;6175;50.956;11.064;2024-03-23T01:34:26;28.70;;;20.52;;
12224;SDS011;6175;50.956;11.064;2024-03-23T01:36:53;32.13;;;22.77;;
12224;SDS011;6175;50.956;11.064;2024-03-23T01:39:18;34.50;;;24.05;;
12224;SDS011;6175;50.956;11.064;2024-03-23T01:41:44;31.30;;;22.58;;
12224;SDS011;6175;50.956;11.064;2024-03-23T01:44:10;27.38;;;20.85;;
12224;SDS011;6175;50.956;11.064;2024-03-23T01:46:38;28.20;;;20.70;;
12224;SDS011;6175;50.956;11.064;2024-03-23T01:49:03;28.90;;;22.83;;
12224;SDS011;6175;50.956;11.064;2024-03-23T01:51:30;24.75;;;19.70;;
12224;SDS011;6175;50.956;11.064;2024-03-23T01:53:55;25.67;;;19.70;;
12224;SDS011;6175;50.956;11.064;2024-03-23T01:56:22;26.52;;;19.63;;
12224;SDS011;6175;50.956;11.064;2024-03-23T01:58:47;26.17;;;20.13;;
12224;SDS011;6175;50.956;11.064;2024-03-23T02:01:14;26.48;;;19.52;;
12224;SDS011;6175;50.956;11.064;2024-03-23T02:03:40;31.05;;;21.52;;
12224;SDS011;6175;50.956;11.064;2024-03-23T02:06:07;31.85;;;23.42;;
12224;SDS011;6175;50.956;11.064;2024-03-23T02:08:33;29.20;;;21.90;;
12224;SDS011;6175;50.956;11.064;2024-03-23T02:10:59;26.00;;;20.30;;
12224;SDS011;6175;50.956;11.064;2024-03-23T02:13:24;27.55;;;19.85;;
12224;SDS011;6175;50.956;11.064;2024-03-23T02:15:51;27.00;;;20.50;;
12224;SDS011;6175;50.956;11.064;2024-03-23T02:18:16;30.55;;;23.15;;
12224;SDS011;6175;50.956;11.064;2024-03-23T02:20:44;30.42;;;22.20;;
12224;SDS011;6175;50.956;11.064;2024-03-23T02:23:14;30.02;;;22.30;;
12224;SDS011;6175;50.956;11.064;2024-03-23T02:25:40;29.08;;;21.95;;
12224;SDS011;6175;50.956;11.064;2024-03-23T02:28:05;29.58;;;22.08;;
12224;SDS011;6175;50.956;11.064;2024-03-23T02:30:32;27.38;;;20.58;;
12224;SDS011;6175;50.956;11.064;2024-03-23T02:32:57;27.55;;;20.77;;
12224;SDS011;6175;50.956;11.064;2024-03-23T02:35:23;27.77;;;20.75;;
12224;SDS011;6175;50.956;11.064;2024-03-23T02:37:49;27.40;;;21.20;;
12224;SDS011;6175;50.956;11.064;2024-03-23T02:40:17;26.10;;;20.45;;
12224;SDS011;6175;50.956;11.064;2024-03-23T02:42:42;27.65;;;19.98;;
12224;SDS011;6175;50.956;11.064;2024-03-23T02:45:08;28.13;;;21.10;;
12224;SDS011;6175;50.956;11.064;2024-03-23T02:47:34;25.40;;;19.58;;
12224;SDS011;6175;50.956;11.064;2024-03-23T02:50:00;23.70;;;19.17;;
12224;SDS011;6175;50.956;11.064;2024-03-23T02:52:26;27.60;;;20.75;;
12224;SDS011;6175;50.956;11.064;2024-03-23T02:54:52;26.38;;;20.60;;
12224;SDS011;6175;50.956;11.064;2024-03-23T02:57:19;25.73;;;19.42;;
12224;SDS011;6175;50.956;11.064;2024-03-23T02:59:45;28.52;;;21.50;;
12224;SDS011;6175;50.956;11.064;2024-03-23T03:02:11;29.05;;;21.38;;
12224;SDS011;6175;50.956;11.064;2024-03-23T03:04:37;29.48;;;21.98;;
12224;SDS011;6175;50.956;11.064;2024-03-23T03:07:02;30.70;;;22.00;;
12224;SDS011;6175;50.956;11.064;2024-03-23T03:09:29;33.30;;;23.58;;
12224;SDS011;6175;50.956;11.064;2024-03-23T03:11:54;32.13;;;22.40;;
12224;SDS011;6175;50.956;11.064;2024-03-23T03:14:22;30.88;;;23.00;;
12224;SDS011;6175;50.956;11.064;2024-03-23T03:16:48;29.63;;;20.80;;
12224;SDS011;6175;50.956;11.064;2024-03-23T03:19:14;26.13;;;19.10;;
12224;SDS011;6175;50.956;11.064;2024-03-23T03:21:41;26.20;;;19.88;;
12224;SDS011;6175;50.956;11.064;2024-03-23T03:24:07;29.13;;;21.60;;
12224;SDS011;6175;50.956;11.064;2024-03-23T03:26:33;29.60;;;20.27;;
12224;SDS011;6175;50.956;11.064;2024-03-23T03:28:59;25.50;;;18.90;;
12224;SDS011;6175;50.956;11.064;2024-03-23T03:31:26;29.83;;;21.15;;
12224;SDS011;6175;50.956;11.064;2024-03-23T03:33:52;31.23;;;21.40;;
12224;SDS011;6175;50.956;11.064;2024-03-23T03:36:17;27.40;;;19.63;;
12224;SDS011;6175;50.956;11.064;2024-03-23T03:38:44;24.55;;;18.73;;
12224;SDS011;6175;50.956;11.064;2024-03-23T03:41:09;23.65;;;17.85;;
12224;SDS011;6175;50.956;11.064;2024-03-23T03:43:35;24.10;;;17.92;;
12224;SDS011;6175;50.956;11.064;2024-03-23T03:46:01;22.60;;;17.73;;
12224;SDS011;6175;50.956;11.064;2024-03-23T03:48:29;25.30;;;17.83;;
12224;SDS011;6175;50.956;11.064;2024-03-23T03:50:55;24.77;;;19.08;;
12224;SDS011;6175;50.956;11.064;2024-03-23T03:53:21;31.55;;;22.25;;
12224;SDS011;6175;50.956;11.064;2024-03-23T03:55:46;28.83;;;20.80;;
12224;SDS011;6175;50.956;11.064;2024-03-23T03:58:13;29.40;;;21.80;;
12224;SDS011;6175;50.956;11.064;2024-03-23T04:00:38;30.08;;;23.02;;
12224;SDS011;6175;50.956;11.064;2024-03-23T04:03:05;30.00;;;22.00;;
12224;SDS011;6175;50.956;11.064;2024-03-23T04:05:32;31.05;;;22.30;;
12224;SDS011;6175;50.956;11.064;2024-03-23T04:07:58;26.85;;;20.30;;
12224;SDS011;6175;50.956;11.064;2024-03-23T04:10:23;26.23;;;19.95;;
12224;SDS011;6175;50.956;11.064;2024-03-23T04:12:50;29.02;;;21.00;;
12224;SDS011;6175;50.956;11.064;2024-03-23T04:15:15;30.23;;;21.00;;
12224;SDS011;6175;50.956;11.064;2024-03-23T04:17:42;30.50;;;21.85;;
12224;SDS011;6175;50.956;11.064;2024-03-23T04:20:08;28.73;;;21.58;;
12224;SDS011;6175;50.956;11.064;2024-03-23T04:22:37;31.48;;;21.70;;
12224;SDS011;6175;50.956;11.064;2024-03-23T04:25:03;32.35;;;23.08;;
12224;SDS011;6175;50.956;11.064;2024-03-23T04:27:31;33.58;;;23.30;;
12224;SDS011;6175;50.956;11.064;2024-03-23T04:29:57;39.13;;;24.33;;
12224;SDS011;6175;50.956;11.064;2024-03-23T04:32:23;41.25;;;27.27;;
12224;SDS011;6175;50.956;11.064;2024-03-23T04:34:48;37.70;;;26.77;;
12224;SDS011;6175;50.956;11.064;2024-03-23T04:37:15;40.33;;;26.63;;
12224;SDS011;6175;50.956;11.064;2024-03-23T04:39:42;40.35;;;26.60;;
12224;SDS011;6175;50.956;11.064;2024-03-23T04:42:09;41.28;;;26.48;;
12224;SDS011;6175;50.956;11.064;2024-03-23T04:44:35;41.15;;;27.27;;
12224;SDS011;6175;50.956;11.064;2024-03-23T04:47:02;37.55;;;24.85;;
12224;SDS011;6175;50.956;11.064;2024-03-23T04:49:28;36.28;;;25.90;;
12224;SDS011;6175;50.956;11.064;2024-03-23T04:51:54;40.67;;;25.90;;
12224;SDS011;6175;50.956;11.064;2024-03-23T04:54:20;38.25;;;26.35;;
12224;SDS011;6175;50.956;11.064;2024-03-23T04:56:48;44.13;;;26.70;;
12224;SDS011;6175;50.956;11.064;2024-03-23T04:59:14;42.10;;;27.45;;
12224;SDS011;6175;50.956;11.064;2024-03-23T05:01:40;40.63;;;26.08;;
12224;SDS011;6175;50.956;11.064;2024-03-23T05:04:08;42.13;;;26.70;;
12224;SDS011;6175;50.956;11.064;2024-03-23T05:06:33;38.25;;;25.17;;
12224;SDS011;6175;50.956;11.064;2024-03-23T05:09:00;38.95;;;25.83;;
12224;SDS011;6175;50.956;11.064;2024-03-23T05:11:26;37.17;;;24.80;;
12224;SDS011;6175;50.956;11.064;2024-03-23T05:13:54;40.25;;;24.67;;
12224;SDS011;6175;50.956;11.064;2024-03-23T05:16:19;35.25;;;22.80;;
12224;SDS011;6175;50.956;11.064;2024-03-23T05:18:46;32.38;;;22.38;;
12224;SDS011;6175;50.956;11.064;2024-03-23T05:21:11;31.67;;;21.35;;
12224;SDS011;6175;50.956;11.064;2024-03-23T05:23:38;33.80;;;21.02;;
12224;SDS011;6175;50.956;11.064;2024-03-23T05:26:03;29.65;;;19.67;;
12224;SDS011;6175;50.956;11.064;2024-03-23T05:28:29;30.35;;;19.13;;
12224;SDS011;6175;50.956;11.064;2024-03-23T05:30:56;31.60;;;20.00;;
12224;SDS011;6175;50.956;11.064;2024-03-23T05:33:23;32.20;;;20.75;;
12224;SDS011;6175;50.956;11.064;2024-03-23T05:35:55;30.73;;;18.73;;
12224;SDS011;6175;50.956;11.064;2024-03-23T05:38:22;25.70;;;17.67;;
12224;SDS011;6175;50.956;11.064;2024-03-23T05:40:52;25.67;;;18.13;;
12224;SDS011;6175;50.956;11.064;2024-03-23T05:43:19;24.00;;;16.70;;
12224;SDS011;6175;50.956;11.064;2024-03-23T05:45:44;26.17;;;17.42;;
12224;SDS011;6175;50.956;11.064;2024-03-23T05:48:12;26.10;;;17.15;;
12224;SDS011;6175;50.956;11.064;2024-03-23T05:50:37;22.73;;;16.15;;
12224;SDS011;6175;50.956;11.064;2024-03-23T05:53:04;23.13;;;15.30;;
12224;SDS011;6175;50.956;11.064;2024-03-23T05:55:30;25.73;;;17.23;;
12224;SDS011;6175;50.956;11.064;2024-03-23T05:57:57;24.65;;;16.95;;
12224;SDS011;6175;50.956;11.064;2024-03-23T06:00:22;24.35;;;16.73;;
12224;SDS011;6175;50.956;11.064;2024-03-23T06:02:51;23.27;;;16.05;;
12224;SDS011;6175;50.956;11.064;2024-03-23T06:05:18;25.50;;;17.48;;
12224;SDS011;6175;50.956;11.064;2024-03-23T06:07:44;28.65;;;19.48;;
12224;SDS011;6175;50.956;11.064;2024-03-23T06:10:09;28.95;;;18.83;;
12224;SDS011;6175;50.956;11.064;2024-03-23T06:12:36;27.08;;;18.25;;
12224;SDS011;6175;50.956;11.064;2024-03-23T06:15:02;28.92;;;19.48;;
12224;SDS011;6175;50.956;11.064;2024-03-23T06:17:28;32.22;;;20.80;;
12224;SDS011;6175;50.956;11.064;2024-03-23T06:19:53;24.30;;;16.77;;
12224;SDS011;6175;50.956;11.064;2024-03-23T06:22:21;31.35;;;18.90;;
12224;SDS011;6175;50.956;11.064;2024-03-23T06:24:46;25.48;;;16.13;;
12224;SDS011;6175;50.956;11.064;2024-03-23T06:27:12;22.85;;;15.23;;
12224;SDS011;6175;50.956;11.064;2024-03-23T06:29:38;21.95;;;14.07;;
12224;SDS011;6175;50.956;11.064;2024-03-23T06:32:04;19.58;;;13.18;;
12224;SDS011;6175;50.956;11.064;2024-03-23T06:34:30;17.58;;;12.02;;
12224;SDS011;6175;50.956;11.064;2024-03-23T06:36:56;15.10;;;10.50;;
12224;SDS011;6175;50.956;11.064;2024-03-23T06:39:23;11.13;;;8.60;;
12224;SDS011;6175;50.956;11.064;2024-03-23T06:41:51;10.63;;;7.50;;
12224;SDS011;6175;50.956;11.064;2024-03-23T06:44:17;10.55;;;6.57;;
12224;SDS011;6175;50.956;11.064;2024-03-23T06:46:43;10.52;;;6.38;;
12224;SDS011;6175;50.956;11.064;2024-03-23T06:49:09;11.15;;;7.55;;
12224;SDS011;6175;50.956;11.064;2024-03-23T06:51:35;11.02;;;6.70;;
12224;SDS011;6175;50.956;11.064;2024-03-23T06:54:02;11.82;;;6.55;;
12224;SDS011;6175;50.956;11.064;2024-03-23T06:56:30;10.38;;;6.72;;
12224;SDS011;6175;50.956;11.064;2024-03-23T06:58:55;11.50;;;7.45;;
12224;SDS011;6175;50.956;11.064;2024-03-23T07:01:22;10.55;;;7.20;;
12224;SDS011;6175;50.956;11.064;2024-03-23T07:03:47;10.93;;;6.55;;
12224;SDS011;6175;50.956;11.064;2024-03-23T07:06:14;9.30;;;6.32;;
12224;SDS011;6175;50.956;11.064;2024-03-23T07:08:39;9.43;;;5.70;;
12224;SDS011;6175;50.956;11.064;2024-03-23T07:11:05;9.57;;;5.53;;
12224;SDS011;6175;50.956;11.064;2024-03-23T07:13:32;7.53;;;5.05;;
12224;SDS011;6175;50.956;11.064;2024-03-23T07:15:58;8.75;;;4.93;;
12224;SDS011;6175;50.956;11.064;2024-03-23T07:18:25;7.57;;;4.90;;
12224;SDS011;6175;50.956;11.064;2024-03-23T07:20:52;7.70;;;4.80;;
12224;SDS011;6175;50.956;11.064;2024-03-23T07:23:17;6.25;;;3.72;;
12224;SDS011;6175;50.956;11.064;2024-03-23T07:25:43;5.15;;;3.25;;
12224;SDS011;6175;50.956;11.064;2024-03-23T07:28:09;5.55;;;3.00;;
12224;SDS011;6175;50.956;11.064;2024-03-23T07:30:36;7.18;;;3.80;;
12224;SDS011;6175;50.956;11.064;2024-03-23T07:33:03;5.72;;;3.17;;
12224;SDS011;6175;50.956;11.064;2024-03-23T07:35:29;6.38;;;3.20;;
12224;SDS011;6175;50.956;11.064;2024-03-23T07:37:55;4.35;;;3.13;;
12224;SDS011;6175;50.956;11.064;2024-03-23T07:40:21;4.72;;;3.03;;
12224;SDS011;6175;50.956;11.064;2024-03-23T07:42:46;5.80;;;2.58;;
12224;SDS011;6175;50.956;11.064;2024-03-23T07:45:13;3.00;;;2.35;;
12224;SDS011;6175;50.956;11.064;2024-03-23T07:47:39;1.73;;;1.30;;
12224;SDS011;6175;50.956;11.064;2024-03-23T07:50:06;0.88;;;0.88;;
12224;SDS011;6175;50.956;11.064;2024-03-23T07:52:32;0.90;;;0.85;;
12224;SDS011;6175;50.956;11.064;2024-03-23T07:54:58;1.40;;;1.23;;
12224;SDS011;6175;50.956;11.064;2024-03-23T07:57:23;1.83;;;1.20;;
12224;SDS011;6175;50.956;11.064;2024-03-23T07:59:50;1.27;;;1.17;;
12224;SDS011;6175;50.956;11.064;2024-03-23T08:02:15;1.45;;;1.35;;
12224;SDS011;6175;50.956;11.064;2024-03-23T08:04:43;1.10;;;1.10;;
12224;SDS011;6175;50.956;11.064;2024-03-23T08:07:08;2.53;;;1.00;;
12224;SDS011;6175;50.956;11.064;2024-03-23T08:09:34;1.15;;;0.88;;
12224;SDS011;6175;50.956;11.064;2024-03-23T08:11:59;0.95;;;0.95;;
12224;SDS011;6175;50.956;11.064;2024-03-23T08:14:27;1.30;;;1.20;;
12224;SDS011;6175;50.956;11.064;2024-03-23T08:16:54;0.80;;;0.80;;
12224;SDS011;6175;50.956;11.064;2024-03-23T08:19:20;0.80;;;0.80;;
12224;SDS011;6175;50.956;11.064;2024-03-23T08:21:47;0.73;;;0.73;;
12224;SDS011;6175;50.956;11.064;2024-03-23T08:24:14;0.90;;;0.90;;
12224;SDS011;6175;50.956;11.064;2024-03-23T08:26:39;0.90;;;0.90;;
12224;SDS011;6175;50.956;11.064;2024-03-23T08:29:05;1.00;;;1.00;;
12224;SDS011;6175;50.956;11.064;2024-03-23T08:31:31;0.95;;;0.95;;
12224;SDS011;6175;50.956;11.064;2024-03-23T08:33:57;0.75;;;0.75;;
12224;SDS011;6175;50.956;11.064;2024-03-23T08:36:22;0.80;;;0.80;;
12224;SDS011;6175;50.956;11.064;2024-03-23T08:38:50;0.77;;;0.77;;
12224;SDS011;6175;50.956;11.064;2024-03-23T08:41:18;0.70;;;0.70;;
12224;SDS011;6175;50.956;11.064;2024-03-23T08:43:45;1.10;;;1.00;;
12224;SDS011;6175;50.956;11.064;2024-03-23T08:46:10;0.82;;;0.80;;
12224;SDS011;6175;50.956;11.064;2024-03-23T08:48:37;1.10;;;0.80;;
12224;SDS011;6175;50.956;11.064;2024-03-23T08:51:03;0.90;;;0.90;;
12224;SDS011;6175;50.956;11.064;2024-03-23T08:53:30;1.00;;;1.00;;
12224;SDS011;6175;50.956;11.064;2024-03-23T08:55:57;0.80;;;0.80;;
12224;SDS011;6175;50.956;11.064;2024-03-23T08:58:24;0.82;;;0.82;;
12224;SDS011;6175;50.956;11.064;2024-03-23T09:00:49;0.70;;;0.70;;
12224;SDS011;6175;50.956;11.064;2024-03-23T09:03:15;0.90;;;0.90;;
12224;SDS011;6175;50.956;11.064;2024-03-23T09:05:41;0.82;;;0.82;;
12224;SDS011;6175;50.956;11.064;2024-03-23T09:08:07;0.60;;;0.60;;
12224;SDS011;6175;50.956;11.064;2024-03-23T09:10:34;0.95;;;0.95;;
12224;SDS011;6175;50.956;11.064;2024-03-23T09:13:03;0.85;;;0.85;;
12224;SDS011;6175;50.956;11.064;2024-03-23T09:15:28;0.98;;;0.98;;
12224;SDS011;6175;50.956;11.064;2024-03-23T09:17:55;0.93;;;0.93;;
12224;SDS011;6175;50.956;11.064;2024-03-23T09:20:20;1.25;;;0.80;;
12224;SDS011;6175;50.956;11.064;2024-03-23T09:22:47;0.93;;;0.93;;
12224;SDS011;6175;50.956;11.064;2024-03-23T09:25:13;1.67;;;1.00;;
12224;SDS011;6175;50.956;11.064;2024-03-23T09:27:39;0.85;;;0.85;;
12224;SDS011;6175;50.956;11.064;2024-03-23T09:30:07;1.00;;;1.00;;
12224;SDS011;6175;50.956;11.064;2024-03-23T09:32:35;2.05;;;1.40;;
12224;SDS011;6175;50.956;11.064;2024-03-23T09:35:00;1.90;;;1.58;;
12224;SDS011;6175;50.956;11.064;2024-03-23T09:37:26;2.35;;;1.58;;
12224;SDS011;6175;50.956;11.064;2024-03-23T09:39:52;1.58;;;1.40;;
12224;SDS011;6175;50.956;11.064;2024-03-23T09:42:18;1.90;;;1.45;;
12224;SDS011;6175;50.956;11.064;2024-03-23T09:44:43;1.50;;;1.40;;
12224;SDS011;6175;50.956;11.064;2024-03-23T09:47:11;5.15;;;1.60;;
12224;SDS011;6175;50.956;11.064;2024-03-23T09:49:37;1.45;;;1.25;;
12224;SDS011;6175;50.956;11.064;2024-03-23T09:52:05;2.33;;;1.50;;
12224;SDS011;6175;50.956;11.064;2024-03-23T09:54:31;1.40;;;1.30;;
12224;SDS011;6175;50.956;11.064;2024-03-23T09:56:57;1.92;;;1.33;;
12224;SDS011;6175;50.956;11.064;2024-03-23T09:59:23;1.50;;;1.40;;
12224;SDS011;6175;50.956;11.064;2024-03-23T10:01:51;1.98;;;1.55;;
12224;SDS011;6175;50.956;11.064;2024-03-23T10:07:01;2.78;;;1.92;;
12224;SDS011;6175;50.956;11.064;2024-03-23T10:09:35;3.03;;;1.52;;
12224;SDS011;6175;50.956;11.064;2024-03-23T10:12:07;1.58;;;1.48;;
12224;SDS011;6175;50.956;11.064;2024-03-23T10:14:32;1.92;;;1.75;;
12224;SDS011;6175;50.956;11.064;2024-03-23T10:17:03;5.43;;;2.10;;
12224;SDS011;6175;50.956;11.064;2024-03-23T10:19:36;4.10;;;1.80;;
12224;SDS011;6175;50.956;11.064;2024-03-23T10:22:03;4.10;;;1.92;;
12224;SDS011;6175;50.956;11.064;2024-03-23T10:24:29;4.35;;;1.70;;
12224;SDS011;6175;50.956;11.064;2024-03-23T10:26:55;3.03;;;1.60;;
12224;SDS011;6175;50.956;11.064;2024-03-23T10:29:21;3.83;;;1.95;;
12224;SDS011;6175;50.956;11.064;2024-03-23T10:31:48;3.53;;;1.98;;
12224;SDS011;6175;50.956;11.064;2024-03-23T10:34:14;3.45;;;2.22;;
12224;SDS011;6175;50.956;11.064;2024-03-23T10:36:41;4.28;;;2.08;;
12224;SDS011;6175;50.956;11.064;2024-03-23T10:39:08;3.88;;;2.55;;
12224;SDS011;6175;50.956;11.064;2024-03-23T10:41:34;6.10;;;2.78;;
12224;SDS011;6175;50.956;11.064;2024-03-23T10:44:00;3.88;;;2.72;;
12224;SDS011;6175;50.956;11.064;2024-03-23T10:46:27;10.30;;;3.65;;
12224;SDS011;6175;50.956;11.064;2024-03-23T10:48:53;6.45;;;2.90;;
12224;SDS011;6175;50.956;11.064;2024-03-23T10:51:19;6.80;;;3.30;;
12224;SDS011;6175;50.956;11.064;2024-03-23T10:53:45;6.15;;;3.28;;
12224;SDS011;6175;50.956;11.064;2024-03-23T10:56:13;6.18;;;2.95;;
12224;SDS011;6175;50.956;11.064;2024-03-23T10:58:40;8.38;;;3.05;;
12224;SDS011;6175;50.956;11.064;2024-03-23T11:01:07;6.68;;;2.95;;
12224;SDS011;6175;50.956;11.064;2024-03-23T11:03:36;7.18;;;2.95;;
12224;SDS011;6175;50.956;11.064;2024-03-23T11:06:02;6.20;;;2.75;;
12224;SDS011;6175;50.956;11.064;2024-03-23T11:08:31;6.50;;;3.15;;
12224;SDS011;6175;50.956;11.064;2024-03-23T11:11:15;7.05;;;3.38;;
12224;SDS011;6175;50.956;11.064;2024-03-23T11:13:42;7.30;;;3.33;;
12224;SDS011;6175;50.956;11.064;2024-03-23T11:16:12;6.47;;;3.80;;
12224;SDS011;6175;50.956;11.064;2024-03-23T11:18:38;5.82;;;3.72;;
12224;SDS011;6175;50.956;11.064;2024-03-23T11:21:04;7.10;;;4.13;;
12224;SDS011;6175;50.956;11.064;2024-03-23T11:23:31;6.93;;;4.20;;
12224;SDS011;6175;50.956;11.064;2024-03-23T11:25:57;8.43;;;4.45;;
12224;SDS011;6175;50.956;11.064;2024-03-23T11:28:24;9.98;;;5.10;;
12224;SDS011;6175;50.956;11.064;2024-03-23T11:30:50;9.25;;;4.65;;
12224;SDS011;6175;50.956;11.064;2024-03-23T11:33:16;9.60;;;5.43;;
12224;SDS011;6175;50.956;11.064;2024-03-23T11:35:42;8.30;;;4.75;;
12224;SDS011;6175;50.956;11.064;2024-03-23T11:38:08;9.70;;;5.18;;
12224;SDS011;6175;50.956;11.064;2024-03-23T11:40:35;11.18;;;5.18;;
12224;SDS011;6175;50.956;11.064;2024-03-23T11:43:01;7.63;;;4.70;;
12224;SDS011;6175;50.956;11.064;2024-03-23T11:45:33;9.13;;;4.90;;
12224;SDS011;6175;50.956;11.064;2024-03-23T11:48:02;9.20;;;4.93;;
12224;SDS011;6175;50.956;11.064;2024-03-23T11:50:29;7.82;;;4.60;;
12224;SDS011;6175;50.956;11.064;2024-03-23T11:53:05;6.80;;;4.32;;
12224;SDS011;6175;50.956;11.064;2024-03-23T11:55:38;7.95;;;4.13;;
12224;SDS011;6175;50.956;11.064;2024-03-23T11:58:03;6.97;;;3.97;;
12224;SDS011;6175;50.956;11.064;2024-03-23T12:00:31;9.98;;;5.15;;
12224;SDS011;6175;50.956;11.064;2024-03-23T12:02:59;6.65;;;4.55;;
12224;SDS011;6175;50.956;11.064;2024-03-23T12:05:26;9.32;;;5.10;;
12224;SDS011;6175;50.956;11.064;2024-03-23T12:07:51;7.82;;;4.13;;
12224;SDS011;6175;50.956;11.064;2024-03-23T12:10:18;8.43;;;4.28;;
12224;SDS011;6175;50.956;11.064;2024-03-23T12:12:44;6.47;;;3.70;;
12224;SDS011;6175;50.956;11.064;2024-03-23T12:15:10;6.43;;;3.83;;
12224;SDS011;6175;50.956;11.064;2024-03-23T12:17:39;9.32;;;4.93;;
12224;SDS011;6175;50.956;11.064;2024-03-23T12:20:05;6.10;;;3.40;;
12224;SDS011;6175;50.956;11.064;2024-03-23T12:22:32;7.97;;;3.95;;
12224;SDS011;6175;50.956;11.064;2024-03-23T12:24:59;7.93;;;4.47;;
12224;SDS011;6175;50.956;11.064;2024-03-23T12:27:24;6.57;;;4.03;;
12224;SDS011;6175;50.956;11.064;2024-03-23T12:29:51;8.18;;;4.13;;
12224;SDS011;6175;50.956;11.064;2024-03-23T12:32:16;5.70;;;3.65;;
12224;SDS011;6175;50.956;11.064;2024-03-23T12:34:45;7.32;;;3.28;;
12224;SDS011;6175;50.956;11.064;2024-03-23T12:37:12;5.50;;;3.30;;
12224;SDS011;6175;50.956;11.064;2024-03-23T12:39:38;5.63;;;3.15;;
12224;SDS011;6175;50.956;11.064;2024-03-23T12:42:04;6.13;;;3.38;;
12224;SDS011;6175;50.956;11.064;2024-03-23T12:44:30;8.35;;;3.53;;
12224;SDS011;6175;50.956;11.064;2024-03-23T12:46:56;4.20;;;3.22;;
12224;SDS011;6175;50.956;11.064;2024-03-23T12:49:23;4.50;;;3.17;;
12224;SDS011;6175;50.956;11.064;2024-03-23T12:51:52;7.10;;;3.35;;
12224;SDS011;6175;50.956;11.064;2024-03-23T12:54:19;6.32;;;3.05;;
12224;SDS011;6175;50.956;11.064;2024-03-23T12:56:45;4.40;;;3.15;;
12224;SDS011;6175;50.956;11.064;2024-03-23T12:59:11;3.42;;;2.70;;
12224;SDS011;6175;50.956;11.064;2024-03-23T13:01:38;3.03;;;2.30;;
12224;SDS011;6175;50.956;11.064;2024-03-23T13:04:04;4.35;;;2.65;;
12224;SDS011;6175;50.956;11.064;2024-03-23T13:06:29;3.50;;;2.40;;
12224;SDS011;6175;50.956;11.064;2024-03-23T13:09:00;4.88;;;2.47;;
12224;SDS011;6175;50.956;11.064;2024-03-23T13:11:26;4.93;;;2.60;;
12224;SDS011;6175;50.956;11.064;2024-03-23T13:13:52;4.03;;;2.25;;
12224;SDS011;6175;50.956;11.064;2024-03-23T13:16:18;5.82;;;2.83;;
12224;SDS011;6175;50.956;11.064;2024-03-23T13:18:44;5.90;;;2.45;;
12224;SDS011;6175;50.956;11.064;2024-03-23T13:21:09;6.00;;;2.35;;
12224;SDS011;6175;50.956;11.064;2024-03-23T13:23:36;4.25;;;2.80;;
12224;SDS011;6175;50.956;11.064;2024-03-23T13:26:05;4.30;;;2.50;;
12224;SDS011;6175;50.956;11.064;2024-03-23T13:28:32;5.45;;;2.17;;
12224;SDS011;6175;50.956;11.064;2024-03-23T13:30:58;4.75;;;2.05;;
12224;SDS011;6175;50.956;11.064;2024-03-23T13:33:28;3.17;;;1.70;;
12224;SDS011;6175;50.956;11.064;2024-03-23T13:35:54;3.20;;;2.03;;
12224;SDS011;6175;50.956;11.064;2024-03-23T13:38:21;3.15;;;2.20;;
12224;SDS011;6175;50.956;11.064;2024-03-23T13:40:50;3.28;;;2.05;;
12224;SDS011;6175;50.956;11.064;2024-03-23T13:43:18;4.18;;;2.35;;
12224;SDS011;6175;50.956;11.064;2024-03-23T13:45:44;3.42;;;2.15;;
12224;SDS011;6175;50.956;11.064;2024-03-23T13:48:11;3.40;;;2.17;;
12224;SDS011;6175;50.956;11.064;2024-03-23T13:50:36;4.30;;;2.10;;
12224;SDS011;6175;50.956;11.064;2024-03-23T13:53:03;3.33;;;2.33;;
12224;SDS011;6175;50.956;11.064;2024-03-23T13:55:28;3.70;;;1.80;;
12224;SDS011;6175;50.956;11.064;2024-03-23T13:57:55;4.28;;;2.30;;
12224;SDS011;6175;50.956;11.064;2024-03-23T14:00:21;5.40;;;2.55;;
12224;SDS011;6175;50.956;11.064;2024-03-23T14:02:48;4.63;;;2.50;;
12224;SDS011;6175;50.956;11.064;2024-03-23T14:05:14;3.45;;;2.92;;
12224;SDS011;6175;50.956;11.064;2024-03-23T14:07:40;3.10;;;2.70;;
12224;SDS011;6175;50.956;11.064;2024-03-23T14:10:06;4.03;;;3.50;;
12224;SDS011;6175;50.956;11.064;2024-03-23T14:12:32;3.38;;;2.80;;
12224;SDS011;6175;50.956;11.064;2024-03-23T14:14:57;3.53;;;3.22;;
12224;SDS011;6175;50.956;11.064;2024-03-23T14:17:25;3.70;;;3.05;;
12224;SDS011;6175;50.956;11.064;2024-03-23T14:19:51;3.72;;;2.70;;
12224;SDS011;6175;50.956;11.064;2024-03-23T14:22:17;6.65;;;2.72;;
12224;SDS011;6175;50.956;11.064;2024-03-23T14:24:44;3.53;;;2.20;;
12224;SDS011;6175;50.956;11.064;2024-03-23T14:27:10;4.78;;;2.38;;
12224;SDS011;6175;50.956;11.064;2024-03-23T14:29:36;4.90;;;2.47;;
12224;SDS011;6175;50.956;11.064;2024-03-23T14:32:02;3.75;;;2.40;;
12224;SDS011;6175;50.956;11.064;2024-03-23T14:34:29;3.03;;;2.42;;
12224;SDS011;6175;50.956;11.064;2024-03-23T14:36:55;3.90;;;3.10;;
12224;SDS011;6175;50.956;11.064;2024-03-23T14:39:22;4.15;;;2.97;;
12224;SDS011;6175;50.956;11.064;2024-03-23T14:41:50;3.53;;;2.45;;
12224;SDS011;6175;50.956;11.064;2024-03-23T14:44:15;4.97;;;2.85;;
12224;SDS011;6175;50.956;11.064;2024-03-23T14:46:41;3.70;;;2.55;;
12224;SDS011;6175;50.956;11.064;2024-03-23T14:49:08;3.90;;;2.80;;
12224;SDS011;6175;50.956;11.064;2024-03-23T14:51:35;3.15;;;2.28;;
12224;SDS011;6175;50.956;11.064;2024-03-23T14:54:01;4.03;;;2.72;;
12224;SDS011;6175;50.956;11.064;2024-03-23T14:56:28;3.03;;;2.22;;
12224;SDS011;6175;50.956;11.064;2024-03-23T14:58:53;3.78;;;2.20;;
12224;SDS011;6175;50.956;11.064;2024-03-23T15:01:20;4.45;;;2.45;;
12224;SDS011;6175;50.956;11.064;2024-03-23T15:03:46;5.00;;;1.98;;
12224;SDS011;6175;50.956;11.064;2024-03-23T15:06:12;1.73;;;1.60;;
12224;SDS011;6175;50.956;11.064;2024-03-23T15:08:39;2.20;;;2.00;;
12224;SDS011;6175;50.956;11.064;2024-03-23T15:11:06;2.35;;;1.52;;
12224;SDS011;6175;50.956;11.064;2024-03-23T15:13:31;3.33;;;1.77;;
12224;SDS011;6175;50.956;11.064;2024-03-23T15:15:57;2.30;;;1.92;;
12224;SDS011;6175;50.956;11.064;2024-03-23T15:18:23;3.30;;;2.17;;
12224;SDS011;6175;50.956;11.064;2024-03-23T15:20:52;3.35;;;1.80;;
12224;SDS011;6175;50.956;11.064;2024-03-23T15:23:17;2.33;;;1.95;;
12224;SDS011;6175;50.956;11.064;2024-03-23T15:25:45;4.82;;;1.92;;
12224;SDS011;6175;50.956;11.064;2024-03-23T15:28:10;2.17;;;1.98;;